createdAt,value
2023-04-28T00:00:16.583Z,7.39
2023-04-28T00:02:49.061Z,7.32
2023-04-28T00:05:17.824Z,7.26
2023-04-28T00:07:46.567Z,7.22
2023-04-28T00:10:15.123Z,7.17
2023-04-28T00:12:43.635Z,7.11
2023-04-28T00:15:13.472Z,7.09
2023-04-28T00:17:41.966Z,7.06
2023-04-28T00:20:13.599Z,7.05
2023-04-28T00:22:41.952Z,7.04
2023-04-28T00:25:11.488Z,7.05
2023-04-28T00:27:39.922Z,7.06
2023-04-28T00:30:10.449Z,7.08
2023-04-28T00:32:38.814Z,7.10
2023-04-28T00:35:08.788Z,7.12
2023-04-28T00:37:40.016Z,7.13
2023-04-28T00:40:10.163Z,7.12
2023-04-28T00:42:38.785Z,7.12
2023-04-28T00:45:08.329Z,7.10
2023-04-28T00:47:38.638Z,7.10
2023-04-28T00:50:10.487Z,7.10
2023-04-28T00:52:40.689Z,7.10
2023-04-28T00:55:10.761Z,7.10
2023-04-28T00:57:40.417Z,7.12
2023-04-28T01:00:10.198Z,7.11
2023-04-28T01:02:39.116Z,7.11
2023-04-28T01:05:08.218Z,7.10
2023-04-28T01:07:37.245Z,7.13
2023-04-28T01:10:08.886Z,7.12
2023-04-28T01:12:37.550Z,7.11
2023-04-28T01:15:07.480Z,7.09
2023-04-28T01:17:36.031Z,7.09
2023-04-28T01:20:04.900Z,7.09
2023-04-28T01:22:33.427Z,7.10
2023-04-28T01:25:04.149Z,7.11
2023-04-28T01:27:35.455Z,7.14
2023-04-28T01:30:04.106Z,7.16
2023-04-28T01:32:32.492Z,7.20
2023-04-28T01:35:01.542Z,7.23
2023-04-28T01:37:29.981Z,7.24
2023-04-28T01:39:58.434Z,7.24
2023-04-28T01:42:28.239Z,7.27
2023-04-28T01:44:58.790Z,7.27
2023-04-28T01:47:27.931Z,7.28
2023-04-28T01:49:56.408Z,7.30
2023-04-28T01:52:24.884Z,7.34
2023-04-28T01:54:53.330Z,7.35
2023-04-28T01:57:22.502Z,7.35
2023-04-28T01:59:53.622Z,7.35
2023-04-28T02:02:22.576Z,7.36
2023-04-28T02:04:52.041Z,7.36
2023-04-28T02:07:21.255Z,7.36
2023-04-28T02:09:50.153Z,7.36
2023-04-28T02:12:18.731Z,7.36
2023-04-28T02:14:47.152Z,7.37
2023-04-28T02:17:17.008Z,7.38
2023-04-28T02:19:45.529Z,7.38
2023-04-28T02:22:14.192Z,7.37
2023-04-28T02:24:42.704Z,7.35
2023-04-28T02:27:11.069Z,7.33
2023-04-28T02:29:40.275Z,7.31
2023-04-28T02:32:08.737Z,7.28
2023-04-28T02:34:38.967Z,7.25
2023-04-28T02:37:07.549Z,7.21
2023-04-28T02:39:36.053Z,7.19
2023-04-28T02:42:05.511Z,7.16
2023-04-28T02:44:34.115Z,7.16
2023-04-28T02:47:02.714Z,7.14
2023-04-28T02:49:31.267Z,7.12
2023-04-28T02:52:01.065Z,7.12
2023-04-28T02:54:29.637Z,7.10
2023-04-28T02:56:59.126Z,7.09
2023-04-28T02:59:28.267Z,7.09
2023-04-28T03:01:57.227Z,7.08
2023-04-28T03:04:26.162Z,7.07
2023-04-28T03:06:54.943Z,7.09
2023-04-28T03:09:24.896Z,7.08
2023-04-28T03:11:53.282Z,7.07
2023-04-28T03:14:21.884Z,7.07
2023-04-28T03:16:50.852Z,7.07
2023-04-28T03:19:19.692Z,7.07
2023-04-28T03:21:48.156Z,7.06
2023-04-28T03:24:16.871Z,7.06
2023-04-28T03:26:46.794Z,7.03
2023-04-28T03:29:15.178Z,7.02
2023-04-28T03:31:44.548Z,7.00
2023-04-28T03:34:13.539Z,7.01
2023-04-28T03:36:42.028Z,7.01
2023-04-28T03:39:10.386Z,7.02
2023-04-28T03:41:38.711Z,7.02
2023-04-28T03:44:08.591Z,7.01
2023-04-28T03:46:36.972Z,7.01
2023-04-28T03:49:08.039Z,7.00
2023-04-28T03:51:36.497Z,7.01
2023-04-28T03:54:05.363Z,7.01
2023-04-28T03:56:33.908Z,7.00
2023-04-28T03:59:02.242Z,7.00
2023-04-28T04:01:31.995Z,7.00
2023-04-28T04:04:01.385Z,7.01
2023-04-28T04:06:29.963Z,7.01
2023-04-28T04:08:58.767Z,7.02
2023-04-28T04:11:27.607Z,7.04
2023-04-28T04:13:56.165Z,7.07
2023-04-28T04:16:25.117Z,7.09
2023-04-28T04:18:54.962Z,7.13
2023-04-28T04:21:24.900Z,7.15
2023-04-28T04:23:53.586Z,7.18
2023-04-28T04:26:22.479Z,7.23
2023-04-28T04:28:51.058Z,7.25
2023-04-28T04:31:19.942Z,7.26
2023-04-28T04:33:48.428Z,7.27
2023-04-28T04:36:18.412Z,7.30
2023-04-28T04:38:47.153Z,7.31
2023-04-28T04:41:15.745Z,7.31
2023-04-28T04:43:44.069Z,7.35
2023-04-28T04:46:12.447Z,7.35
2023-04-28T04:48:40.789Z,7.36
2023-04-28T04:51:09.205Z,7.37
2023-04-28T04:53:39.055Z,7.38
2023-04-28T04:56:07.954Z,7.40
2023-04-28T04:58:36.562Z,7.44
2023-04-28T05:01:04.935Z,7.48
2023-04-28T05:03:33.438Z,7.54
2023-04-28T05:06:03.009Z,7.56
2023-04-28T05:08:31.438Z,7.57
2023-04-28T05:11:01.191Z,7.60
2023-04-28T05:13:29.521Z,7.60
2023-04-28T05:15:58.088Z,7.62
2023-04-28T05:18:27.237Z,7.65
2023-04-28T05:20:56.047Z,7.68
2023-04-28T05:23:25.185Z,7.73
2023-04-28T05:25:53.928Z,7.75
2023-04-28T05:28:23.705Z,7.78
2023-04-28T05:30:52.382Z,7.82
2023-04-28T05:33:21.154Z,7.87
2023-04-28T05:35:50.182Z,7.95
2023-04-28T05:38:18.823Z,8.02
2023-04-28T05:40:47.181Z,8.06
2023-04-28T05:43:15.533Z,8.10
2023-04-28T05:45:45.308Z,8.17
2023-04-28T05:48:13.734Z,8.24
2023-04-28T05:50:42.336Z,8.33
2023-04-28T05:53:10.857Z,8.39
2023-04-28T05:55:39.422Z,8.49
2023-04-28T05:58:08.138Z,8.60
2023-04-28T06:00:36.961Z,8.70
2023-04-28T06:03:09.062Z,8.77
2023-04-28T06:05:37.740Z,8.85
2023-04-28T06:08:07.903Z,8.94
2023-04-28T06:10:36.306Z,9.03
2023-04-28T06:13:06.424Z,9.06
2023-04-28T06:15:35.023Z,9.09
2023-04-28T06:18:03.559Z,9.15
2023-04-28T06:20:33.295Z,9.19
2023-04-28T06:23:01.713Z,9.23
2023-04-28T06:25:31.427Z,9.32
2023-04-28T06:27:59.872Z,9.40
2023-04-28T06:30:28.222Z,9.48
2023-04-28T06:32:57.887Z,9.55
2023-04-28T06:35:27.271Z,9.57
2023-04-28T06:37:57.699Z,9.58
2023-04-28T06:40:26.096Z,9.56
2023-04-28T06:42:54.722Z,9.62
2023-04-28T06:45:23.415Z,9.64
2023-04-28T06:47:52.733Z,9.73
2023-04-28T06:50:21.432Z,9.86
2023-04-28T06:52:50.061Z,9.95
2023-04-28T06:55:20.105Z,10.03
2023-04-28T06:57:48.529Z,10.10
2023-04-28T07:00:18.299Z,10.19
2023-04-28T07:02:47.029Z,10.27
2023-04-28T07:05:16.692Z,10.36
2023-04-28T07:07:46.634Z,10.41
2023-04-28T07:10:15.827Z,10.50
2023-04-28T07:12:45.803Z,10.55
2023-04-28T07:15:14.162Z,10.61
2023-04-28T07:17:42.574Z,10.66
2023-04-28T07:20:11.883Z,10.69
2023-04-28T07:22:40.489Z,10.74
2023-04-28T07:25:09.821Z,10.83
2023-04-28T07:27:38.593Z,10.97
2023-04-28T07:30:25.645Z,11.12
2023-04-28T07:32:56.340Z,11.31
2023-04-28T07:35:25.105Z,11.47
2023-04-28T07:37:55.222Z,11.57
2023-04-28T07:40:23.981Z,11.71
2023-04-28T07:42:53.202Z,11.83
2023-04-28T07:45:23.321Z,11.93
2023-04-28T07:47:52.444Z,12.00
2023-04-28T07:50:21.129Z,12.05
2023-04-28T07:52:49.746Z,12.07
2023-04-28T07:55:18.419Z,12.14
2023-04-28T07:57:46.749Z,12.16
2023-04-28T08:00:16.629Z,12.17
2023-04-28T08:02:46.568Z,12.14
2023-04-28T08:05:15.383Z,12.16
2023-04-28T08:07:44.029Z,12.24
2023-04-28T08:10:13.313Z,12.38
2023-04-28T08:12:41.981Z,12.49
2023-04-28T08:15:11.744Z,12.63
2023-04-28T08:17:40.759Z,12.78
2023-04-28T08:20:12.022Z,12.95
2023-04-28T08:22:40.546Z,13.09
2023-04-28T08:25:10.897Z,13.25
2023-04-28T08:27:40.108Z,13.39
2023-04-28T08:30:10.210Z,13.59
2023-04-28T08:32:38.744Z,13.68
2023-04-28T08:35:09.026Z,13.75
2023-04-28T08:37:38.907Z,13.80
2023-04-28T08:40:10.890Z,13.83
2023-04-28T08:42:39.696Z,13.84
2023-04-28T08:45:09.770Z,13.85
2023-04-28T08:47:40.770Z,13.80
2023-04-28T08:50:12.609Z,13.69
2023-04-28T08:52:43.597Z,13.61
2023-04-28T08:55:13.870Z,13.56
2023-04-28T08:57:45.709Z,13.55
2023-04-28T09:00:15.237Z,13.54
2023-04-28T09:02:43.928Z,13.53
2023-04-28T09:05:14.685Z,13.50
2023-04-28T09:07:48.911Z,13.48
2023-04-28T09:10:21.336Z,13.42
2023-04-28T09:12:53.320Z,13.38
2023-04-28T09:15:34.182Z,13.35
2023-04-28T09:18:04.463Z,13.43
2023-04-28T09:20:35.747Z,13.58
2023-04-28T09:23:21.412Z,13.70
2023-04-28T09:26:05.401Z,13.76
2023-04-28T09:28:36.800Z,13.82
2023-04-28T09:31:06.047Z,13.89
2023-04-28T09:33:34.647Z,14.01
2023-04-28T09:36:04.549Z,14.13
2023-04-28T09:38:45.318Z,14.26
2023-04-28T09:41:14.110Z,14.38
2023-04-28T09:43:42.744Z,14.57
2023-04-28T09:46:12.102Z,14.84
2023-04-28T09:48:41.443Z,15.16
2023-04-28T09:51:12.390Z,15.48
2023-04-28T09:53:43.054Z,15.90
2023-04-28T09:56:12.082Z,16.20
2023-04-28T09:58:44.695Z,16.23
2023-04-28T10:01:14.301Z,16.17
2023-04-28T10:03:45.486Z,16.13
2023-04-28T10:06:14.876Z,16.20
2023-04-28T10:08:48.281Z,16.27
2023-04-28T10:11:17.575Z,16.40
2023-04-28T10:13:46.221Z,16.60
2023-04-28T10:16:15.962Z,16.86
2023-04-28T10:18:45.041Z,17.17
2023-04-28T10:21:18.300Z,17.37
2023-04-28T10:24:11.353Z,17.72
2023-04-28T10:27:09.770Z,18.21
2023-04-28T10:29:39.469Z,18.61
2023-04-28T10:32:23.624Z,18.79
2023-04-28T10:34:53.333Z,18.69
2023-04-28T10:37:22.597Z,18.59
2023-04-28T10:40:35.789Z,18.54
2023-04-28T10:43:05.160Z,18.53
2023-04-28T10:46:13.031Z,18.50
2023-04-28T10:49:08.331Z,18.47
2023-04-28T10:51:37.715Z,18.58
2023-04-28T10:54:19.961Z,18.63
2023-04-28T10:57:22.910Z,18.53
2023-04-28T10:59:52.829Z,18.40
2023-04-28T11:02:51.412Z,18.34
2023-04-28T11:05:21.861Z,18.25
2023-04-28T11:08:33.274Z,18.06
2023-04-28T11:11:27.452Z,17.96
2023-04-28T11:14:32.931Z,17.78
2023-04-28T11:17:03.743Z,17.59
2023-04-28T11:19:34.369Z,17.41
2023-04-28T11:22:10.028Z,17.23
2023-04-28T11:24:39.191Z,17.03
2023-04-28T11:27:07.758Z,16.90
2023-04-28T11:29:40.242Z,16.84
2023-04-28T11:32:11.272Z,16.82
2023-04-28T11:34:39.979Z,16.86
2023-04-28T11:37:09.368Z,17.04
2023-04-28T11:39:37.877Z,17.27
2023-04-28T11:42:12.131Z,17.53
2023-04-28T11:44:41.974Z,17.78
2023-04-28T11:47:10.382Z,18.08
2023-04-28T11:49:45.871Z,18.45
2023-04-28T11:52:15.038Z,18.87
2023-04-28T11:54:43.921Z,19.34
2023-04-28T11:57:20.455Z,19.77
2023-04-28T11:59:51.154Z,19.90
2023-04-28T12:02:30.063Z,19.87
2023-04-28T12:05:07.554Z,19.77
2023-04-28T12:07:43.945Z,19.59
2023-04-28T12:10:16.099Z,19.47
2023-04-28T12:12:51.872Z,19.32
2023-04-28T12:15:25.084Z,19.27
2023-04-28T12:17:53.616Z,19.20
2023-04-28T12:20:38.957Z,18.98
2023-04-28T12:23:08.589Z,18.87
2023-04-28T12:25:45.657Z,18.86
2023-04-28T12:28:14.273Z,19.01
2023-04-28T12:30:44.180Z,19.20
2023-04-28T12:33:25.202Z,19.26
2023-04-28T12:35:55.249Z,19.14
2023-04-28T12:38:24.120Z,19.05
2023-04-28T12:40:53.279Z,19.05
2023-04-28T12:43:23.451Z,19.17
2023-04-28T12:45:54.531Z,19.26
2023-04-28T12:48:24.000Z,19.28
2023-04-28T12:50:53.062Z,19.23
2023-04-28T12:53:22.236Z,19.23
2023-04-28T12:55:51.200Z,19.21
2023-04-28T12:58:19.967Z,19.06
2023-04-28T13:00:51.240Z,18.82
2023-04-28T13:03:21.727Z,18.52
2023-04-28T13:05:50.352Z,18.30
2023-04-28T13:08:18.731Z,18.23
2023-04-28T13:10:47.195Z,18.21
2023-04-28T13:13:15.523Z,18.33
2023-04-28T13:15:44.271Z,18.37
2023-04-28T13:18:12.666Z,18.31
2023-04-28T13:20:42.658Z,18.17
2023-04-28T13:23:11.139Z,18.02
2023-04-28T13:25:39.582Z,17.86
2023-04-28T13:28:08.088Z,17.82
2023-04-28T13:30:36.908Z,17.87
2023-04-28T13:33:05.529Z,17.96
2023-04-28T13:35:33.934Z,17.97
2023-04-28T13:38:04.587Z,17.98
2023-04-28T13:40:35.660Z,17.98
2023-04-28T13:43:04.156Z,17.98
2023-04-28T13:45:33.069Z,17.92
2023-04-28T13:48:01.515Z,17.82
2023-04-28T13:50:30.092Z,17.70
2023-04-28T13:52:58.741Z,17.59
2023-04-28T13:55:28.815Z,17.45
2023-04-28T13:58:01.636Z,17.27
2023-04-28T14:00:30.122Z,17.14
2023-04-28T14:03:00.144Z,17.13
2023-04-28T14:05:31.535Z,17.27
2023-04-28T14:08:08.819Z,17.50
2023-04-28T14:10:38.702Z,17.60
2023-04-28T14:13:09.022Z,17.59
2023-04-28T14:15:42.460Z,17.55
2023-04-28T14:18:22.154Z,17.40
2023-04-28T14:20:51.309Z,17.20
2023-04-28T14:23:20.649Z,17.06
2023-04-28T14:25:52.082Z,17.07
2023-04-28T14:28:24.298Z,17.08
2023-04-28T14:30:56.270Z,17.01
2023-04-28T14:33:25.418Z,16.94
2023-04-28T14:35:54.011Z,16.87
2023-04-28T14:38:23.820Z,16.83
2023-04-28T14:40:54.246Z,16.80
2023-04-28T14:43:23.884Z,16.72
2023-04-28T14:45:53.006Z,16.62
2023-04-28T14:48:22.256Z,16.58
2023-04-28T14:50:51.507Z,16.53
2023-04-28T14:53:20.009Z,16.48
2023-04-28T14:55:48.562Z,16.45
2023-04-28T14:58:18.474Z,16.42
2023-04-28T15:00:46.801Z,16.36
2023-04-28T15:03:15.607Z,16.33
2023-04-28T15:05:44.130Z,16.26
2023-04-28T15:08:12.902Z,16.18
2023-04-28T15:10:44.052Z,16.13
2023-04-28T15:13:12.867Z,16.10
2023-04-28T15:15:42.719Z,16.06
2023-04-28T15:18:13.133Z,16.04
2023-04-28T15:20:41.743Z,16.00
2023-04-28T15:23:10.866Z,15.98
2023-04-28T15:25:41.524Z,15.92
2023-04-28T15:28:10.396Z,15.90
2023-04-28T15:30:41.167Z,15.86
2023-04-28T15:33:17.159Z,15.82
2023-04-28T15:35:46.453Z,15.75
2023-04-28T15:38:14.958Z,15.72
2023-04-28T15:40:44.422Z,15.65
2023-04-28T15:43:13.526Z,15.56
2023-04-28T15:45:45.129Z,15.49
2023-04-28T15:48:15.438Z,15.38
2023-04-28T15:50:44.270Z,15.29
2023-04-28T15:53:12.784Z,15.18
2023-04-28T15:55:41.296Z,15.10
2023-04-28T15:58:10.971Z,15.07
2023-04-28T16:00:40.652Z,15.01
2023-04-28T16:03:09.694Z,14.96
2023-04-28T16:05:39.895Z,14.92
2023-04-28T16:08:08.300Z,14.87
2023-04-28T16:10:36.879Z,14.79
2023-04-28T16:13:10.799Z,14.71
2023-04-28T16:15:39.976Z,14.65
2023-04-28T16:18:08.521Z,14.57
2023-04-28T16:20:38.667Z,14.49
2023-04-28T16:23:07.601Z,14.43
2023-04-28T16:25:36.553Z,14.39
2023-04-28T16:28:05.130Z,14.36
2023-04-28T16:30:34.740Z,14.33
2023-04-28T16:33:03.681Z,14.28
2023-04-28T16:35:32.962Z,14.24
2023-04-28T16:38:05.671Z,14.15
2023-04-28T16:40:34.109Z,14.09
2023-04-28T16:43:03.296Z,14.05
2023-04-28T16:45:31.881Z,13.97
2023-04-28T16:48:01.871Z,13.94
2023-04-28T16:50:30.473Z,13.95
2023-04-28T16:52:59.151Z,13.97
2023-04-28T16:55:30.347Z,14.04
2023-04-28T16:57:58.817Z,14.07
2023-04-28T17:00:27.998Z,14.04
2023-04-28T17:02:57.027Z,14.03
2023-04-28T17:05:25.768Z,14.02
2023-04-28T17:07:55.185Z,14.01
2023-04-28T17:10:23.828Z,14.00
2023-04-28T17:12:53.785Z,14.02
2023-04-28T17:15:22.716Z,14.00
2023-04-28T17:17:52.058Z,14.00
2023-04-28T17:20:21.639Z,13.99
2023-04-28T17:22:51.072Z,13.96
2023-04-28T17:25:20.323Z,13.94
2023-04-28T17:27:48.780Z,13.94
2023-04-28T17:30:19.035Z,13.98
2023-04-28T17:32:47.700Z,14.00
2023-04-28T17:35:16.478Z,14.04
2023-04-28T17:37:45.158Z,14.04
2023-04-28T17:40:14.888Z,14.05
2023-04-28T17:42:44.045Z,14.05
2023-04-28T17:45:13.296Z,14.04
2023-04-28T17:47:43.081Z,14.02
2023-04-28T17:50:12.232Z,13.97
2023-04-28T17:52:43.381Z,13.96
2023-04-28T17:55:15.603Z,13.97
2023-04-28T17:57:44.050Z,13.98
2023-04-28T18:00:14.676Z,13.96
2023-04-28T18:02:44.710Z,13.95
2023-04-28T18:05:13.557Z,13.97
2023-04-28T18:07:41.982Z,13.96
2023-04-28T18:10:11.183Z,13.95
2023-04-28T18:12:39.858Z,13.95
2023-04-28T18:15:09.666Z,13.92
2023-04-28T18:17:38.269Z,13.87
2023-04-28T18:20:10.554Z,13.86
2023-04-28T18:22:39.196Z,13.84
2023-04-28T18:25:08.536Z,13.80
2023-04-28T18:27:37.455Z,13.77
2023-04-28T18:30:07.080Z,13.74
2023-04-28T18:32:36.025Z,13.73
2023-04-28T18:35:04.844Z,13.69
2023-04-28T18:37:34.696Z,13.65
2023-04-28T18:40:03.998Z,13.59
2023-04-28T18:42:33.117Z,13.54
2023-04-28T18:45:01.925Z,13.51
2023-04-28T18:47:30.988Z,13.46
2023-04-28T18:50:01.006Z,13.37
2023-04-28T18:52:30.095Z,13.29
2023-04-28T18:54:59.862Z,13.27
2023-04-28T18:57:28.842Z,13.20
2023-04-28T19:00:00.789Z,13.17
2023-04-28T19:02:29.681Z,13.13
2023-04-28T19:04:58.826Z,13.10
2023-04-28T19:07:28.320Z,13.09
2023-04-28T19:09:56.694Z,13.08
2023-04-28T19:12:26.821Z,13.07
2023-04-28T19:14:55.838Z,13.04
2023-04-28T19:17:25.002Z,12.97
2023-04-28T19:19:57.482Z,12.93
2023-04-28T19:22:34.765Z,12.92
2023-04-28T19:25:04.239Z,12.91
2023-04-28T19:27:37.094Z,12.85
2023-04-28T19:30:07.867Z,12.78
2023-04-28T19:32:36.832Z,12.76
2023-04-28T19:35:05.891Z,12.72
2023-04-28T19:37:35.130Z,12.66
2023-04-28T19:40:05.903Z,12.61
2023-04-28T19:42:36.003Z,12.59
2023-04-28T19:45:04.672Z,12.60
2023-04-28T19:47:34.231Z,12.59
2023-04-28T19:50:02.826Z,12.58
2023-04-28T19:52:31.416Z,12.56
2023-04-28T19:55:00.697Z,12.56
2023-04-28T19:57:30.351Z,12.53
2023-04-28T20:00:00.129Z,12.51
2023-04-28T20:02:29.028Z,12.50
2023-04-28T20:04:57.983Z,12.52
2023-04-28T20:07:26.624Z,12.51
2023-04-28T20:09:56.428Z,12.49
2023-04-28T20:12:25.489Z,12.44
2023-04-28T20:14:54.381Z,12.44
2023-04-28T20:17:24.446Z,12.43
2023-04-28T20:19:53.622Z,12.41
2023-04-28T20:22:22.610Z,12.41
2023-04-28T20:24:51.417Z,12.40
2023-04-28T20:27:21.985Z,12.39
2023-04-28T20:29:50.714Z,12.36
2023-04-28T20:32:19.654Z,12.36
2023-04-28T20:34:49.447Z,12.36
2023-04-28T20:37:17.893Z,12.35
2023-04-28T20:39:47.131Z,12.32
2023-04-28T20:42:15.685Z,12.30
2023-04-28T20:44:44.495Z,12.29
2023-04-28T20:47:13.045Z,12.27
2023-04-28T20:49:42.557Z,12.22
2023-04-28T20:52:12.288Z,12.22
2023-04-28T20:54:43.629Z,12.21
2023-04-28T20:57:12.138Z,12.17
2023-04-28T20:59:40.624Z,12.21
2023-04-28T21:02:09.173Z,12.21
2023-04-28T21:04:37.562Z,12.19
2023-04-28T21:07:06.045Z,12.17
2023-04-28T21:09:37.498Z,12.13
2023-04-28T21:12:06.697Z,12.10
2023-04-28T21:14:36.841Z,12.08
2023-04-28T21:17:07.107Z,12.07
2023-04-28T21:19:36.102Z,12.05
2023-04-28T21:22:04.431Z,12.02
2023-04-28T21:24:32.882Z,11.99
2023-04-28T21:27:05.421Z,12.01
2023-04-28T21:29:34.578Z,12.01
2023-04-28T21:32:03.113Z,11.99
2023-04-28T21:34:32.972Z,11.97
2023-04-28T21:37:02.185Z,11.98
2023-04-28T21:39:30.590Z,11.97
2023-04-28T21:41:59.027Z,11.96
2023-04-28T21:44:29.087Z,11.93
2023-04-28T21:46:57.867Z,11.93
2023-04-28T21:49:27.232Z,11.89
2023-04-28T21:51:55.686Z,11.86
2023-04-28T21:54:24.438Z,11.85
2023-04-28T21:56:53.052Z,11.85
2023-04-28T21:59:22.018Z,11.85
2023-04-28T22:01:53.098Z,11.85
2023-04-28T22:04:21.886Z,11.85
2023-04-28T22:06:50.754Z,11.85
2023-04-28T22:09:19.269Z,11.82
2023-04-28T22:11:47.673Z,11.81
2023-04-28T22:14:34.961Z,11.79
2023-04-28T22:17:06.245Z,11.75
2023-04-28T22:19:34.617Z,11.75
2023-04-28T22:22:03.203Z,11.74
2023-04-28T22:24:31.680Z,11.71
2023-04-28T22:27:00.209Z,11.69
2023-04-28T22:29:29.507Z,11.70
2023-04-28T22:31:58.754Z,11.68
2023-04-28T22:34:28.493Z,11.68
2023-04-28T22:36:57.035Z,11.65
2023-04-28T22:39:26.947Z,11.64
2023-04-28T22:41:55.825Z,11.63
2023-04-28T22:44:24.572Z,11.62
2023-04-28T22:46:53.414Z,11.64
2023-04-28T22:49:25.744Z,11.65
2023-04-28T22:51:55.649Z,11.65
2023-04-28T22:54:24.224Z,11.64
2023-04-28T22:56:53.388Z,11.61
2023-04-28T22:59:22.212Z,11.59
2023-04-28T23:01:51.703Z,11.60
2023-04-28T23:04:20.603Z,11.57
2023-04-28T23:06:49.278Z,11.53
2023-04-28T23:09:19.705Z,11.50
2023-04-28T23:11:48.247Z,11.47
2023-04-28T23:14:16.641Z,11.45
2023-04-28T23:16:45.052Z,11.43
2023-04-28T23:19:13.470Z,11.42
2023-04-28T23:21:42.068Z,11.43
2023-04-28T23:24:11.538Z,11.46
2023-04-28T23:26:41.629Z,11.48
2023-04-28T23:29:11.253Z,11.46
2023-04-28T23:31:40.072Z,11.47
2023-04-28T23:34:08.802Z,11.48
2023-04-28T23:36:38.062Z,11.48
2023-04-28T23:39:07.134Z,11.50
2023-04-28T23:41:35.806Z,11.51
2023-04-28T23:44:06.173Z,11.50
2023-04-28T23:46:35.037Z,11.47
2023-04-28T23:49:03.932Z,11.47
2023-04-28T23:51:33.003Z,11.47
2023-04-28T23:54:02.603Z,11.44
2023-04-28T23:56:31.404Z,11.43
2023-04-28T23:59:01.011Z,11.43
